sensor_id;sensor_type;location;lat;lon;timestamp;P1;durP1;ratioP1;P2;durP2;ratioP2
43154;SDS011;34212;51.018;13.586;2022-11-20T00:02:19;13.65;;;7.80;;
43154;SDS011;34212;51.018;13.586;2022-11-20T00:07:20;12.77;;;7.55;;
43154;SDS011;34212;51.018;13.586;2022-11-20T00:12:21;14.40;;;7.75;;
43154;SDS011;34212;51.018;13.586;2022-11-20T00:17:23;15.38;;;7.53;;
43154;SDS011;34212;51.018;13.586;2022-11-20T00:22:24;13.30;;;6.80;;
43154;SDS011;34212;51.018;13.586;2022-11-20T00:27:26;13.20;;;7.13;;
43154;SDS011;34212;51.018;13.586;2022-11-20T00:32:27;11.45;;;6.90;;
43154;SDS011;34212;51.018;13.586;2022-11-20T00:37:29;11.40;;;6.25;;
43154;SDS011;34212;51.018;13.586;2022-11-20T00:42:30;10.50;;;6.03;;
43154;SDS011;34212;51.018;13.586;2022-11-20T00:47:33;12.48;;;6.30;;
43154;SDS011;34212;51.018;13.586;2022-11-20T00:52:35;10.82;;;6.13;;
43154;SDS011;34212;51.018;13.586;2022-11-20T00:57:36;10.07;;;6.05;;
43154;SDS011;34212;51.018;13.586;2022-11-20T01:02:37;10.98;;;6.45;;
43154;SDS011;34212;51.018;13.586;2022-11-20T01:07:39;10.73;;;6.82;;
43154;SDS011;34212;51.018;13.586;2022-11-20T01:12:40;12.10;;;6.68;;
43154;SDS011;34212;51.018;13.586;2022-11-20T01:17:42;12.43;;;6.55;;
43154;SDS011;34212;51.018;13.586;2022-11-20T01:22:43;10.95;;;6.03;;
43154;SDS011;34212;51.018;13.586;2022-11-20T01:27:44;10.05;;;5.65;;
43154;SDS011;34212;51.018;13.586;2022-11-20T01:32:46;13.90;;;6.95;;
43154;SDS011;34212;51.018;13.586;2022-11-20T01:37:47;11.85;;;6.28;;
43154;SDS011;34212;51.018;13.586;2022-11-20T01:42:51;13.23;;;7.10;;
43154;SDS011;34212;51.018;13.586;2022-11-20T01:48:19;14.20;;;6.15;;
43154;SDS011;34212;51.018;13.586;2022-11-20T01:53:24;11.40;;;6.28;;
43154;SDS011;34212;51.018;13.586;2022-11-20T01:58:30;8.75;;;5.65;;
43154;SDS011;34212;51.018;13.586;2022-11-20T02:03:36;9.45;;;5.95;;
43154;SDS011;34212;51.018;13.586;2022-11-20T02:08:38;10.73;;;6.30;;
43154;SDS011;34212;51.018;13.586;2022-11-20T02:13:40;8.88;;;5.28;;
43154;SDS011;34212;51.018;13.586;2022-11-20T02:18:45;10.77;;;5.43;;
43154;SDS011;34212;51.018;13.586;2022-11-20T02:29:10;8.02;;;5.28;;
43154;SDS011;34212;51.018;13.586;2022-11-20T02:34:11;9.93;;;5.05;;
43154;SDS011;34212;51.018;13.586;2022-11-20T02:39:13;12.55;;;6.10;;
43154;SDS011;34212;51.018;13.586;2022-11-20T02:44:18;9.95;;;5.13;;
43154;SDS011;34212;51.018;13.586;2022-11-20T02:49:19;10.15;;;5.38;;
43154;SDS011;34212;51.018;13.586;2022-11-20T02:54:21;8.85;;;5.25;;
43154;SDS011;34212;51.018;13.586;2022-11-20T02:59:22;8.88;;;4.85;;
43154;SDS011;34212;51.018;13.586;2022-11-20T03:04:24;8.55;;;5.25;;
43154;SDS011;34212;51.018;13.586;2022-11-20T03:09:26;9.02;;;5.45;;
43154;SDS011;34212;51.018;13.586;2022-11-20T03:14:27;11.07;;;5.35;;
43154;SDS011;34212;51.018;13.586;2022-11-20T03:19:29;11.57;;;5.38;;
43154;SDS011;34212;51.018;13.586;2022-11-20T03:24:30;10.13;;;5.30;;
43154;SDS011;34212;51.018;13.586;2022-11-20T03:29:32;9.48;;;5.40;;
43154;SDS011;34212;51.018;13.586;2022-11-20T03:34:33;8.00;;;4.60;;
43154;SDS011;34212;51.018;13.586;2022-11-20T03:39:34;9.57;;;4.95;;
43154;SDS011;34212;51.018;13.586;2022-11-20T03:44:36;12.52;;;5.55;;
43154;SDS011;34212;51.018;13.586;2022-11-20T03:49:37;10.20;;;5.85;;
43154;SDS011;34212;51.018;13.586;2022-11-20T03:54:39;9.30;;;4.90;;
43154;SDS011;34212;51.018;13.586;2022-11-20T03:59:40;9.18;;;4.50;;
43154;SDS011;34212;51.018;13.586;2022-11-20T04:04:41;9.15;;;4.82;;
43154;SDS011;34212;51.018;13.586;2022-11-20T04:09:43;8.23;;;4.43;;
43154;SDS011;34212;51.018;13.586;2022-11-20T04:14:44;9.88;;;4.55;;
43154;SDS011;34212;51.018;13.586;2022-11-20T04:19:46;9.30;;;4.95;;
43154;SDS011;34212;51.018;13.586;2022-11-20T04:24:47;9.15;;;4.72;;
43154;SDS011;34212;51.018;13.586;2022-11-20T04:29:49;9.63;;;4.63;;
43154;SDS011;34212;51.018;13.586;2022-11-20T04:34:50;8.80;;;4.80;;
43154;SDS011;34212;51.018;13.586;2022-11-20T04:39:51;9.15;;;4.50;;
43154;SDS011;34212;51.018;13.586;2022-11-20T04:44:53;7.75;;;4.20;;
43154;SDS011;34212;51.018;13.586;2022-11-20T04:49:54;7.13;;;4.28;;
43154;SDS011;34212;51.018;13.586;2022-11-20T04:54:56;7.47;;;4.07;;
43154;SDS011;34212;51.018;13.586;2022-11-20T04:59:57;8.60;;;4.40;;
43154;SDS011;34212;51.018;13.586;2022-11-20T05:04:59;7.40;;;4.20;;
43154;SDS011;34212;51.018;13.586;2022-11-20T05:10:00;7.82;;;4.40;;
43154;SDS011;34212;51.018;13.586;2022-11-20T05:15:02;8.52;;;4.13;;
43154;SDS011;34212;51.018;13.586;2022-11-20T05:20:03;8.13;;;3.78;;
43154;SDS011;34212;51.018;13.586;2022-11-20T05:25:05;8.63;;;4.35;;
43154;SDS011;34212;51.018;13.586;2022-11-20T05:30:07;7.43;;;3.75;;
43154;SDS011;34212;51.018;13.586;2022-11-20T05:35:09;8.10;;;4.15;;
43154;SDS011;34212;51.018;13.586;2022-11-20T05:40:10;5.63;;;3.00;;
43154;SDS011;34212;51.018;13.586;2022-11-20T05:45:12;5.88;;;3.10;;
43154;SDS011;34212;51.018;13.586;2022-11-20T05:50:14;6.45;;;3.25;;
43154;SDS011;34212;51.018;13.586;2022-11-20T05:55:15;6.55;;;3.25;;
43154;SDS011;34212;51.018;13.586;2022-11-20T06:00:17;5.35;;;3.42;;
43154;SDS011;34212;51.018;13.586;2022-11-20T06:05:19;4.65;;;2.67;;
43154;SDS011;34212;51.018;13.586;2022-11-20T06:10:20;6.13;;;3.10;;
43154;SDS011;34212;51.018;13.586;2022-11-20T06:15:21;5.70;;;3.30;;
43154;SDS011;34212;51.018;13.586;2022-11-20T06:20:23;8.45;;;3.20;;
43154;SDS011;34212;51.018;13.586;2022-11-20T06:25:24;7.13;;;3.22;;
43154;SDS011;34212;51.018;13.586;2022-11-20T06:30:26;5.68;;;3.15;;
43154;SDS011;34212;51.018;13.586;2022-11-20T06:35:27;6.70;;;3.53;;
43154;SDS011;34212;51.018;13.586;2022-11-20T06:40:28;8.25;;;3.40;;
43154;SDS011;34212;51.018;13.586;2022-11-20T06:45:30;6.95;;;3.40;;
43154;SDS011;34212;51.018;13.586;2022-11-20T06:50:31;8.05;;;4.20;;
43154;SDS011;34212;51.018;13.586;2022-11-20T06:55:32;7.68;;;3.78;;
43154;SDS011;34212;51.018;13.586;2022-11-20T07:00:34;6.35;;;3.50;;
43154;SDS011;34212;51.018;13.586;2022-11-20T07:05:35;10.35;;;5.22;;
43154;SDS011;34212;51.018;13.586;2022-11-20T07:10:37;9.32;;;4.78;;
43154;SDS011;34212;51.018;13.586;2022-11-20T07:15:39;9.23;;;4.70;;
43154;SDS011;34212;51.018;13.586;2022-11-20T07:20:40;8.30;;;4.95;;
43154;SDS011;34212;51.018;13.586;2022-11-20T07:25:41;6.45;;;3.83;;
43154;SDS011;34212;51.018;13.586;2022-11-20T07:30:44;7.35;;;4.25;;
43154;SDS011;34212;51.018;13.586;2022-11-20T07:35:51;9.30;;;4.25;;
43154;SDS011;34212;51.018;13.586;2022-11-20T07:40:55;9.82;;;5.20;;
43154;SDS011;34212;51.018;13.586;2022-11-20T07:45:58;9.23;;;4.95;;
43154;SDS011;34212;51.018;13.586;2022-11-20T07:51:00;11.23;;;6.40;;
43154;SDS011;34212;51.018;13.586;2022-11-20T07:56:01;9.00;;;4.97;;
43154;SDS011;34212;51.018;13.586;2022-11-20T08:01:07;9.33;;;5.27;;
43154;SDS011;34212;51.018;13.586;2022-11-20T08:06:09;11.20;;;5.68;;
43154;SDS011;34212;51.018;13.586;2022-11-20T08:11:11;10.57;;;5.65;;
43154;SDS011;34212;51.018;13.586;2022-11-20T08:16:31;11.45;;;6.07;;
43154;SDS011;34212;51.018;13.586;2022-11-20T08:21:32;10.90;;;5.43;;
43154;SDS011;34212;51.018;13.586;2022-11-20T08:26:39;12.43;;;5.95;;
43154;SDS011;34212;51.018;13.586;2022-11-20T08:31:41;11.98;;;6.85;;
43154;SDS011;34212;51.018;13.586;2022-11-20T08:36:42;11.00;;;5.70;;
43154;SDS011;34212;51.018;13.586;2022-11-20T08:41:44;10.60;;;5.80;;
43154;SDS011;34212;51.018;13.586;2022-11-20T08:46:45;10.20;;;5.80;;
43154;SDS011;34212;51.018;13.586;2022-11-20T08:51:48;12.73;;;6.40;;
43154;SDS011;34212;51.018;13.586;2022-11-20T08:56:52;10.82;;;6.18;;
43154;SDS011;34212;51.018;13.586;2022-11-20T09:01:54;12.50;;;6.47;;
43154;SDS011;34212;51.018;13.586;2022-11-20T09:06:55;11.88;;;6.97;;
43154;SDS011;34212;51.018;13.586;2022-11-20T09:11:57;11.52;;;6.50;;
43154;SDS011;34212;51.018;13.586;2022-11-20T09:16:58;10.55;;;5.85;;
43154;SDS011;34212;51.018;13.586;2022-11-20T09:22:00;12.25;;;5.95;;
43154;SDS011;34212;51.018;13.586;2022-11-20T09:27:02;10.90;;;6.35;;
43154;SDS011;34212;51.018;13.586;2022-11-20T09:37:06;11.02;;;5.85;;
43154;SDS011;34212;51.018;13.586;2022-11-20T09:42:12;9.35;;;5.82;;
43154;SDS011;34212;51.018;13.586;2022-11-20T09:47:58;10.20;;;5.75;;
43154;SDS011;34212;51.018;13.586;2022-11-20T09:53:22;7.78;;;4.57;;
43154;SDS011;34212;51.018;13.586;2022-11-20T09:58:45;8.65;;;5.07;;
43154;SDS011;34212;51.018;13.586;2022-11-20T10:03:50;8.75;;;4.95;;
43154;SDS011;34212;51.018;13.586;2022-11-20T10:14:28;6.95;;;4.35;;
43154;SDS011;34212;51.018;13.586;2022-11-20T10:19:54;8.85;;;5.25;;
43154;SDS011;34212;51.018;13.586;2022-11-20T10:25:18;8.23;;;5.28;;
43154;SDS011;34212;51.018;13.586;2022-11-20T10:30:21;10.25;;;6.43;;
43154;SDS011;34212;51.018;13.586;2022-11-20T10:40:43;9.18;;;5.22;;
43154;SDS011;34212;51.018;13.586;2022-11-20T10:56:25;9.32;;;5.32;;
43154;SDS011;34212;51.018;13.586;2022-11-20T11:01:39;9.07;;;5.30;;
43154;SDS011;34212;51.018;13.586;2022-11-20T11:06:43;8.95;;;5.30;;
43154;SDS011;34212;51.018;13.586;2022-11-20T11:11:49;13.07;;;8.18;;
43154;SDS011;34212;51.018;13.586;2022-11-20T11:16:51;10.82;;;7.00;;
43154;SDS011;34212;51.018;13.586;2022-11-20T11:21:57;13.25;;;7.43;;
43154;SDS011;34212;51.018;13.586;2022-11-20T11:27:03;11.75;;;6.55;;
43154;SDS011;34212;51.018;13.586;2022-11-20T11:32:18;12.40;;;6.80;;
43154;SDS011;34212;51.018;13.586;2022-11-20T11:37:21;11.77;;;7.25;;
43154;SDS011;34212;51.018;13.586;2022-11-20T11:42:23;11.57;;;7.45;;
43154;SDS011;34212;51.018;13.586;2022-11-20T11:47:26;15.32;;;8.75;;
43154;SDS011;34212;51.018;13.586;2022-11-20T11:52:32;15.02;;;9.27;;
43154;SDS011;34212;51.018;13.586;2022-11-20T12:02:40;13.15;;;7.43;;
43154;SDS011;34212;51.018;13.586;2022-11-20T12:07:55;12.07;;;6.60;;
43154;SDS011;34212;51.018;13.586;2022-11-20T12:13:04;11.85;;;7.43;;
43154;SDS011;34212;51.018;13.586;2022-11-20T12:18:30;11.65;;;7.07;;
43154;SDS011;34212;51.018;13.586;2022-11-20T12:45:53;12.40;;;7.63;;
43154;SDS011;34212;51.018;13.586;2022-11-20T12:56:43;13.90;;;7.90;;
43154;SDS011;34212;51.018;13.586;2022-11-20T13:02:58;9.95;;;6.40;;
43154;SDS011;34212;51.018;13.586;2022-11-20T13:07:28;9.70;;;5.72;;
43154;SDS011;34212;51.018;13.586;2022-11-20T13:12:36;11.68;;;7.43;;
43154;SDS011;34212;51.018;13.586;2022-11-20T13:17:54;12.13;;;6.80;;
43154;SDS011;34212;51.018;13.586;2022-11-20T13:23:00;11.23;;;7.13;;
43154;SDS011;34212;51.018;13.586;2022-11-20T13:28:24;21.80;;;11.25;;
43154;SDS011;34212;51.018;13.586;2022-11-20T13:33:30;14.52;;;9.15;;
43154;SDS011;34212;51.018;13.586;2022-11-20T13:38:43;11.20;;;7.03;;
43154;SDS011;34212;51.018;13.586;2022-11-20T13:43:47;11.73;;;7.63;;
43154;SDS011;34212;51.018;13.586;2022-11-20T13:48:49;10.13;;;6.30;;
43154;SDS011;34212;51.018;13.586;2022-11-20T13:54:02;9.85;;;6.55;;
43154;SDS011;34212;51.018;13.586;2022-11-20T14:04:30;10.20;;;6.50;;
43154;SDS011;34212;51.018;13.586;2022-11-20T14:09:36;12.93;;;7.07;;
43154;SDS011;34212;51.018;13.586;2022-11-20T14:14:46;11.88;;;6.88;;
43154;SDS011;34212;51.018;13.586;2022-11-20T14:19:50;11.53;;;7.47;;
43154;SDS011;34212;51.018;13.586;2022-11-20T14:30:50;13.57;;;7.40;;
43154;SDS011;34212;51.018;13.586;2022-11-20T14:35:49;14.63;;;8.40;;
43154;SDS011;34212;51.018;13.586;2022-11-20T14:41:08;14.27;;;8.73;;
43154;SDS011;34212;51.018;13.586;2022-11-20T14:46:18;12.93;;;7.32;;
43154;SDS011;34212;51.018;13.586;2022-11-20T14:51:25;14.18;;;7.93;;
43154;SDS011;34212;51.018;13.586;2022-11-20T14:56:30;11.27;;;7.35;;
43154;SDS011;34212;51.018;13.586;2022-11-20T15:01:32;14.77;;;8.85;;
43154;SDS011;34212;51.018;13.586;2022-11-20T15:06:34;14.23;;;8.70;;
43154;SDS011;34212;51.018;13.586;2022-11-20T15:11:36;14.88;;;8.98;;
43154;SDS011;34212;51.018;13.586;2022-11-20T15:16:38;15.27;;;8.48;;
43154;SDS011;34212;51.018;13.586;2022-11-20T15:21:40;17.07;;;9.63;;
43154;SDS011;34212;51.018;13.586;2022-11-20T15:26:41;15.32;;;9.40;;
43154;SDS011;34212;51.018;13.586;2022-11-20T15:31:43;13.60;;;8.20;;
43154;SDS011;34212;51.018;13.586;2022-11-20T15:36:46;15.77;;;7.70;;
43154;SDS011;34212;51.018;13.586;2022-11-20T15:41:47;14.05;;;8.10;;
43154;SDS011;34212;51.018;13.586;2022-11-20T15:46:49;12.45;;;7.55;;
43154;SDS011;34212;51.018;13.586;2022-11-20T15:51:50;11.82;;;7.28;;
43154;SDS011;34212;51.018;13.586;2022-11-20T15:56:53;13.10;;;7.35;;
43154;SDS011;34212;51.018;13.586;2022-11-20T16:01:55;17.25;;;7.82;;
43154;SDS011;34212;51.018;13.586;2022-11-20T16:06:56;13.15;;;7.82;;
43154;SDS011;34212;51.018;13.586;2022-11-20T16:11:58;13.55;;;8.43;;
43154;SDS011;34212;51.018;13.586;2022-11-20T16:17:02;14.27;;;7.32;;
43154;SDS011;34212;51.018;13.586;2022-11-20T16:22:04;13.13;;;7.57;;
43154;SDS011;34212;51.018;13.586;2022-11-20T16:27:05;12.18;;;7.30;;
43154;SDS011;34212;51.018;13.586;2022-11-20T16:32:07;12.95;;;7.97;;
43154;SDS011;34212;51.018;13.586;2022-11-20T16:37:09;11.83;;;6.63;;
43154;SDS011;34212;51.018;13.586;2022-11-20T16:42:11;15.25;;;8.20;;
43154;SDS011;34212;51.018;13.586;2022-11-20T16:47:12;13.07;;;7.97;;
43154;SDS011;34212;51.018;13.586;2022-11-20T16:52:14;13.13;;;7.90;;
43154;SDS011;34212;51.018;13.586;2022-11-20T16:57:15;16.00;;;9.30;;
43154;SDS011;34212;51.018;13.586;2022-11-20T17:02:16;15.40;;;8.90;;
43154;SDS011;34212;51.018;13.586;2022-11-20T17:07:18;15.45;;;9.13;;
43154;SDS011;34212;51.018;13.586;2022-11-20T17:12:22;15.90;;;9.73;;
43154;SDS011;34212;51.018;13.586;2022-11-20T17:17:54;17.08;;;9.18;;
43154;SDS011;34212;51.018;13.586;2022-11-20T17:23:44;15.10;;;8.60;;
43154;SDS011;34212;51.018;13.586;2022-11-20T17:30:16;14.68;;;9.20;;
43154;SDS011;34212;51.018;13.586;2022-11-20T17:35:17;14.20;;;8.88;;
43154;SDS011;34212;51.018;13.586;2022-11-20T17:40:18;21.73;;;11.80;;
43154;SDS011;34212;51.018;13.586;2022-11-20T17:45:27;23.88;;;12.70;;
43154;SDS011;34212;51.018;13.586;2022-11-20T17:50:28;19.58;;;11.23;;
43154;SDS011;34212;51.018;13.586;2022-11-20T17:55:30;14.88;;;8.65;;
43154;SDS011;34212;51.018;13.586;2022-11-20T18:01:02;14.73;;;8.93;;
43154;SDS011;34212;51.018;13.586;2022-11-20T18:11:15;13.90;;;8.40;;
43154;SDS011;34212;51.018;13.586;2022-11-20T18:16:20;13.77;;;7.82;;
43154;SDS011;34212;51.018;13.586;2022-11-20T18:21:21;13.18;;;7.85;;
43154;SDS011;34212;51.018;13.586;2022-11-20T18:26:24;10.65;;;6.65;;
43154;SDS011;34212;51.018;13.586;2022-11-20T18:31:26;13.30;;;6.82;;
43154;SDS011;34212;51.018;13.586;2022-11-20T18:36:28;11.68;;;6.63;;
43154;SDS011;34212;51.018;13.586;2022-11-20T18:41:31;12.10;;;6.57;;
43154;SDS011;34212;51.018;13.586;2022-11-20T18:46:51;12.07;;;7.13;;
43154;SDS011;34212;51.018;13.586;2022-11-20T18:51:53;10.65;;;6.22;;
43154;SDS011;34212;51.018;13.586;2022-11-20T18:56:55;12.05;;;6.55;;
43154;SDS011;34212;51.018;13.586;2022-11-20T19:01:56;11.70;;;6.55;;
43154;SDS011;34212;51.018;13.586;2022-11-20T19:06:57;13.20;;;7.68;;
43154;SDS011;34212;51.018;13.586;2022-11-20T19:11:59;13.35;;;7.25;;
43154;SDS011;34212;51.018;13.586;2022-11-20T19:17:01;12.60;;;6.85;;
43154;SDS011;34212;51.018;13.586;2022-11-20T19:22:03;10.43;;;6.53;;
43154;SDS011;34212;51.018;13.586;2022-11-20T19:27:04;14.60;;;7.68;;
43154;SDS011;34212;51.018;13.586;2022-11-20T19:32:06;12.40;;;7.38;;
43154;SDS011;34212;51.018;13.586;2022-11-20T19:37:07;14.05;;;7.50;;
43154;SDS011;34212;51.018;13.586;2022-11-20T19:42:10;11.77;;;7.30;;
43154;SDS011;34212;51.018;13.586;2022-11-20T19:47:11;12.95;;;7.65;;
43154;SDS011;34212;51.018;13.586;2022-11-20T19:52:15;11.55;;;7.25;;
43154;SDS011;34212;51.018;13.586;2022-11-20T19:57:16;14.02;;;8.18;;
43154;SDS011;34212;51.018;13.586;2022-11-20T20:02:18;13.35;;;8.27;;
43154;SDS011;34212;51.018;13.586;2022-11-20T20:07:19;12.18;;;7.50;;
43154;SDS011;34212;51.018;13.586;2022-11-20T20:12:21;15.18;;;8.40;;
43154;SDS011;34212;51.018;13.586;2022-11-20T20:17:22;13.30;;;8.15;;
43154;SDS011;34212;51.018;13.586;2022-11-20T20:22:24;16.25;;;8.30;;
43154;SDS011;34212;51.018;13.586;2022-11-20T20:27:25;15.50;;;8.90;;
43154;SDS011;34212;51.018;13.586;2022-11-20T20:32:26;13.05;;;7.97;;
43154;SDS011;34212;51.018;13.586;2022-11-20T20:38:36;13.38;;;7.95;;
43154;SDS011;34212;51.018;13.586;2022-11-20T20:43:45;15.63;;;7.80;;
43154;SDS011;34212;51.018;13.586;2022-11-20T20:56:24;15.63;;;8.15;;
43154;SDS011;34212;51.018;13.586;2022-11-20T21:02:01;15.75;;;8.40;;
43154;SDS011;34212;51.018;13.586;2022-11-20T21:07:07;13.63;;;8.40;;
43154;SDS011;34212;51.018;13.586;2022-11-20T21:12:51;15.60;;;8.87;;
43154;SDS011;34212;51.018;13.586;2022-11-20T21:26:33;15.50;;;8.75;;
43154;SDS011;34212;51.018;13.586;2022-11-20T21:33:48;13.25;;;8.38;;
43154;SDS011;34212;51.018;13.586;2022-11-20T21:54:39;13.30;;;7.80;;
43154;SDS011;34212;51.018;13.586;2022-11-20T22:22:14;16.63;;;8.73;;
43154;SDS011;34212;51.018;13.586;2022-11-20T22:27:17;13.55;;;8.90;;
43154;SDS011;34212;51.018;13.586;2022-11-20T22:32:18;12.90;;;8.43;;
43154;SDS011;34212;51.018;13.586;2022-11-20T22:37:20;15.20;;;9.07;;
43154;SDS011;34212;51.018;13.586;2022-11-20T22:42:21;15.77;;;9.43;;
43154;SDS011;34212;51.018;13.586;2022-11-20T22:47:22;16.48;;;9.40;;
43154;SDS011;34212;51.018;13.586;2022-11-20T22:52:24;14.18;;;9.43;;
43154;SDS011;34212;51.018;13.586;2022-11-20T22:57:25;14.60;;;8.85;;
43154;SDS011;34212;51.018;13.586;2022-11-20T23:02:27;15.63;;;9.88;;
43154;SDS011;34212;51.018;13.586;2022-11-20T23:07:28;15.85;;;9.27;;
43154;SDS011;34212;51.018;13.586;2022-11-20T23:12:31;16.88;;;10.50;;
43154;SDS011;34212;51.018;13.586;2022-11-20T23:17:33;16.35;;;9.88;;
43154;SDS011;34212;51.018;13.586;2022-11-20T23:22:34;15.98;;;10.60;;
43154;SDS011;34212;51.018;13.586;2022-11-20T23:27:36;17.17;;;11.07;;
43154;SDS011;34212;51.018;13.586;2022-11-20T23:32:37;17.05;;;10.70;;
43154;SDS011;34212;51.018;13.586;2022-11-20T23:37:38;18.50;;;11.18;;
43154;SDS011;34212;51.018;13.586;2022-11-20T23:42:40;15.55;;;9.85;;
43154;SDS011;34212;51.018;13.586;2022-11-20T23:48:01;16.33;;;10.27;;
43154;SDS011;34212;51.018;13.586;2022-11-20T23:53:03;14.35;;;8.65;;
43154;SDS011;34212;51.018;13.586;2022-11-20T23:58:04;15.73;;;9.80;;
